WAAA/UPG METAR and TAF weather

Enter ICAO airport designator
Station Type Date Time Source
WAAA METAR 2020/11/25 22:30 UTC NOAA

WAAA 252230Z 11002KT 9999 FEW019 25/24 Q1009 NOSIG


Station Type Date Time Source
WAAA Decoded METAR 2020/11/25 22:30 UTC NOAA

Ujung Pandang / Hasanuddin, Indonesia (WAAA) 05-04S 119-33E 14M
Nov 25, 2020 - 05:30 PM EST / 2020.11.25 2230 UTC
Wind: from the ESE (110 degrees) at 2 MPH (2 KT):0
Visibility: greater than 7 mile(s):0
Sky conditions: mostly clear
Temperature: 77 F (25 C)
Dew Point: 75 F (24 C)
Relative Humidity: 94%
Pressure (altimeter): 29.80 in. Hg (1009 hPa)
ob: WAAA 252230Z 11002KT 9999 FEW019 25/24 Q1009 NOSIG
cycle: 22

Station Type Date Time Source
WAAA TAF 2020/11/25 18:25 UTC NOAA

TAF WAAA 251700Z 2518/2700 10005KT 8000 SCT019
TEMPO 2518/2522 5000 TSRA FEW018CB SCT019
BECMG 2601/2603 30010KT 9999
TEMPO 2607/2610 5000 -TSRA FEW017CB SCT019

Example: see airport list